createdAt,value
2022-09-18T00:02:13.933Z,12.67
2022-09-18T00:04:42.721Z,12.64
2022-09-18T00:07:11.437Z,12.62
2022-09-18T00:09:40.295Z,12.62
2022-09-18T00:12:09.186Z,12.60
2022-09-18T00:14:38.136Z,12.65
2022-09-18T00:17:09.243Z,12.64
2022-09-18T00:19:38.127Z,12.60
2022-09-18T00:22:07.125Z,12.64
2022-09-18T00:24:35.763Z,12.64
2022-09-18T00:27:04.452Z,12.57
2022-09-18T00:29:33.227Z,12.64
2022-09-18T00:32:02.472Z,12.65
2022-09-18T00:34:32.709Z,12.61
2022-09-18T00:37:01.403Z,12.62
2022-09-18T00:39:30.060Z,12.60
2022-09-18T00:41:58.745Z,12.60
2022-09-18T00:44:42.905Z,12.57
2022-09-18T00:47:28.243Z,12.55
2022-09-18T00:50:08.187Z,12.50
2022-09-18T00:52:50.905Z,12.43
2022-09-18T00:55:25.397Z,12.44
2022-09-18T00:57:59.080Z,12.41
2022-09-18T01:00:28.079Z,12.37
2022-09-18T01:03:01.474Z,12.36
2022-09-18T01:05:48.887Z,12.31
2022-09-18T01:08:43.227Z,12.28
2022-09-18T01:11:29.329Z,12.22
2022-09-18T01:14:14.136Z,12.19
2022-09-18T01:16:54.640Z,12.20
2022-09-18T01:19:48.377Z,12.20
2022-09-18T01:22:33.107Z,12.19
2022-09-18T01:25:21.289Z,12.20
2022-09-18T01:28:17.884Z,12.18
2022-09-18T01:30:52.159Z,12.15
2022-09-18T01:33:32.634Z,12.13
2022-09-18T01:36:07.654Z,12.15
2022-09-18T01:38:42.969Z,12.16
2022-09-18T01:41:15.768Z,12.12
2022-09-18T01:43:49.769Z,12.13
2022-09-18T01:46:21.394Z,12.19
2022-09-18T01:48:59.253Z,12.14
2022-09-18T01:51:37.556Z,12.13
2022-09-18T01:54:14.265Z,12.08
2022-09-18T01:56:49.256Z,12.09
2022-09-18T01:59:30.626Z,12.04
2022-09-18T02:02:16.240Z,12.10
2022-09-18T02:04:48.751Z,12.07
2022-09-18T02:07:28.436Z,12.06
2022-09-18T02:09:58.964Z,12.06
2022-09-18T02:12:34.311Z,12.08
2022-09-18T02:15:13.049Z,12.04
2022-09-18T02:17:58.669Z,12.04
2022-09-18T02:20:39.801Z,12.04
2022-09-18T02:23:10.403Z,12.05
2022-09-18T02:25:46.797Z,12.01
2022-09-18T02:28:19.428Z,12.05
2022-09-18T02:30:49.981Z,12.01
2022-09-18T02:33:29.095Z,12.00
2022-09-18T02:36:40.897Z,11.92
2022-09-18T02:39:32.264Z,11.95
2022-09-18T02:42:17.472Z,11.97
2022-09-18T02:44:57.008Z,11.92
2022-09-18T02:47:48.438Z,11.92
2022-09-18T02:50:29.808Z,11.91
2022-09-18T02:53:07.201Z,11.88
2022-09-18T02:55:47.346Z,11.89
2022-09-18T02:58:21.940Z,11.82
2022-09-18T03:00:57.340Z,11.87
2022-09-18T03:03:33.920Z,11.85
2022-09-18T03:06:07.449Z,11.79
2022-09-18T03:08:38.192Z,11.76
2022-09-18T03:11:07.992Z,11.68
2022-09-18T03:13:36.886Z,11.63
2022-09-18T03:16:05.655Z,11.64
2022-09-18T03:18:35.795Z,11.57
2022-09-18T03:21:04.785Z,11.55
2022-09-18T03:23:34.605Z,11.52
2022-09-18T03:26:14.933Z,11.47
2022-09-18T03:28:44.332Z,11.40
2022-09-18T03:31:14.960Z,11.31
2022-09-18T03:33:45.188Z,11.34
2022-09-18T03:36:14.790Z,11.33
2022-09-18T03:38:44.353Z,11.35
2022-09-18T03:41:13.687Z,11.20
2022-09-18T03:43:43.973Z,11.19
2022-09-18T03:46:14.147Z,11.20
2022-09-18T03:48:44.340Z,11.25
2022-09-18T03:51:13.080Z,11.13
2022-09-18T03:53:41.900Z,11.15
2022-09-18T03:56:26.596Z,11.08
2022-09-18T03:59:13.775Z,11.06
2022-09-18T04:02:02.963Z,11.12
2022-09-18T04:04:33.936Z,11.13
2022-09-18T04:07:32.416Z,11.14
2022-09-18T04:10:23.990Z,11.08
2022-09-18T04:12:52.990Z,11.08
2022-09-18T04:15:28.165Z,11.16
2022-09-18T04:17:57.964Z,11.20
2022-09-18T04:20:31.796Z,11.18
2022-09-18T04:23:02.094Z,11.35
2022-09-18T04:25:31.149Z,11.30
2022-09-18T04:28:00.523Z,11.35
2022-09-18T04:30:30.023Z,11.48
2022-09-18T04:32:59.029Z,11.46
2022-09-18T04:35:29.792Z,11.47
2022-09-18T04:37:58.738Z,11.54
2022-09-18T04:40:29.851Z,11.53
2022-09-18T04:42:58.985Z,11.55
2022-09-18T04:45:28.822Z,11.59
2022-09-18T04:47:57.546Z,11.68
2022-09-18T04:50:28.839Z,11.60
2022-09-18T04:53:19.827Z,11.68
2022-09-18T04:55:49.894Z,11.71
2022-09-18T04:58:21.016Z,11.76
2022-09-18T05:00:54.959Z,11.87
2022-09-18T05:03:24.034Z,11.89
2022-09-18T05:05:56.293Z,11.86
2022-09-18T05:08:26.059Z,11.97
2022-09-18T05:10:54.769Z,12.03
2022-09-18T05:13:24.098Z,12.09
2022-09-18T05:16:02.186Z,12.11
2022-09-18T05:18:33.086Z,12.20
2022-09-18T05:21:07.026Z,12.24
2022-09-18T05:23:36.433Z,12.32
2022-09-18T05:26:05.713Z,12.35
2022-09-18T05:28:34.745Z,12.35
2022-09-18T05:31:04.626Z,12.43
2022-09-18T05:33:41.807Z,12.46
2022-09-18T05:36:12.242Z,12.50
2022-09-18T05:38:41.007Z,12.60
2022-09-18T05:41:11.257Z,12.68
2022-09-18T05:43:40.271Z,12.72
2022-09-18T05:46:11.925Z,12.85
2022-09-18T05:48:47.109Z,12.79
2022-09-18T05:51:17.593Z,12.86
2022-09-18T05:53:48.619Z,12.95
2022-09-18T05:56:22.966Z,13.11
2022-09-18T05:58:52.154Z,13.08
2022-09-18T06:01:20.882Z,13.21
2022-09-18T06:04:12.534Z,13.30
2022-09-18T06:06:57.182Z,13.34
2022-09-18T06:09:27.860Z,13.48
2022-09-18T06:11:56.959Z,13.51
2022-09-18T06:14:26.219Z,13.54
2022-09-18T06:16:55.692Z,13.59
2022-09-18T06:19:24.418Z,13.76
2022-09-18T06:21:55.657Z,13.77
2022-09-18T06:24:24.655Z,13.80
2022-09-18T06:27:07.312Z,13.81
2022-09-18T06:29:37.087Z,13.89
2022-09-18T06:32:12.439Z,13.85
2022-09-18T06:34:42.262Z,13.95
2022-09-18T06:37:15.869Z,13.83
2022-09-18T06:39:44.941Z,13.88
2022-09-18T06:42:33.470Z,13.89
2022-09-18T06:45:14.700Z,13.93
2022-09-18T06:47:43.646Z,13.95
2022-09-18T06:50:16.023Z,13.93
2022-09-18T06:52:48.060Z,13.94
2022-09-18T06:55:17.672Z,14.02
2022-09-18T06:57:56.003Z,14.00
2022-09-18T07:00:25.737Z,14.02
2022-09-18T07:03:01.084Z,14.11
2022-09-18T07:05:50.049Z,14.20
2022-09-18T07:08:47.003Z,14.20
2022-09-18T07:11:43.754Z,14.28
2022-09-18T07:14:16.099Z,14.37
2022-09-18T07:16:45.737Z,14.37
2022-09-18T07:19:15.348Z,14.36
2022-09-18T07:21:45.014Z,14.47
2022-09-18T07:24:18.271Z,14.58
2022-09-18T07:26:48.884Z,14.55
2022-09-18T07:29:24.666Z,14.71
2022-09-18T07:31:54.885Z,14.71
2022-09-18T07:34:24.343Z,14.82
2022-09-18T07:36:53.381Z,14.74
2022-09-18T07:39:26.285Z,14.85
2022-09-18T07:42:17.408Z,14.81
2022-09-18T07:44:52.635Z,14.69
2022-09-18T07:47:26.940Z,14.81
2022-09-18T07:49:55.984Z,14.91
2022-09-18T07:52:27.869Z,15.07
2022-09-18T07:55:00.232Z,15.22
2022-09-18T07:57:33.706Z,15.32
2022-09-18T08:00:19.665Z,15.42
2022-09-18T08:02:52.562Z,15.55
2022-09-18T08:05:43.489Z,15.59
2022-09-18T08:08:14.529Z,15.63
2022-09-18T08:11:06.019Z,15.67
2022-09-18T08:13:45.869Z,15.69
2022-09-18T08:16:36.701Z,15.67
2022-09-18T08:19:08.233Z,15.54
2022-09-18T08:21:49.736Z,15.80
2022-09-18T08:24:19.249Z,15.96
2022-09-18T08:26:50.133Z,16.21
2022-09-18T08:29:22.009Z,16.21
2022-09-18T08:31:55.496Z,16.10
2022-09-18T08:34:24.334Z,15.96
2022-09-18T08:36:53.285Z,15.84
2022-09-18T08:39:26.734Z,15.63
2022-09-18T08:42:17.488Z,15.49
2022-09-18T08:44:51.835Z,15.43
2022-09-18T08:47:26.868Z,15.26
2022-09-18T08:50:05.582Z,15.00
2022-09-18T08:52:45.835Z,15.05
2022-09-18T08:55:33.488Z,15.10
2022-09-18T08:58:19.827Z,15.09
2022-09-18T09:00:56.179Z,15.16
2022-09-18T09:03:53.234Z,15.21
2022-09-18T09:06:42.432Z,15.18
2022-09-18T09:09:40.231Z,15.14
2022-09-18T09:12:26.037Z,15.30
2022-09-18T09:15:22.060Z,15.36
2022-09-18T09:18:16.545Z,15.45
2022-09-18T09:20:54.873Z,15.43
2022-09-18T09:24:05.334Z,15.49
2022-09-18T09:26:59.814Z,15.71
2022-09-18T09:30:01.686Z,15.81
2022-09-18T09:33:13.530Z,15.92
2022-09-18T09:36:08.383Z,15.99
2022-09-18T09:39:07.414Z,16.01
2022-09-18T09:41:43.645Z,16.03
2022-09-18T09:44:30.420Z,16.12
2022-09-18T09:47:16.263Z,15.97
2022-09-18T09:50:01.894Z,15.88
2022-09-18T09:52:33.462Z,15.90
2022-09-18T09:55:28.460Z,15.91
2022-09-18T09:58:22.477Z,16.02
2022-09-18T10:01:04.374Z,16.25
2022-09-18T10:03:47.316Z,16.30
2022-09-18T10:06:37.051Z,16.37
2022-09-18T10:09:20.147Z,16.36
2022-09-18T10:12:00.257Z,16.36
2022-09-18T10:14:35.403Z,16.40
2022-09-18T10:17:06.565Z,16.48
2022-09-18T10:19:41.700Z,16.51
2022-09-18T10:22:19.337Z,16.55
2022-09-18T10:25:01.212Z,16.63
2022-09-18T10:27:30.007Z,16.65
2022-09-18T10:29:59.533Z,16.47
2022-09-18T10:32:43.497Z,16.52
2022-09-18T10:35:43.228Z,16.53
2022-09-18T10:38:37.582Z,16.52
2022-09-18T10:41:36.899Z,16.65
2022-09-18T10:44:25.718Z,16.61
2022-09-18T10:47:09.551Z,16.78
2022-09-18T10:49:50.849Z,16.55
2022-09-18T10:52:36.736Z,16.70
2022-09-18T10:55:21.000Z,16.91
2022-09-18T10:58:15.722Z,17.03
2022-09-18T11:00:57.614Z,17.05
2022-09-18T11:03:43.327Z,16.97
2022-09-18T11:06:23.948Z,16.94
2022-09-18T11:08:57.293Z,16.95
2022-09-18T11:11:36.180Z,16.90
2022-09-18T11:14:21.863Z,17.03
2022-09-18T11:17:05.494Z,17.16
2022-09-18T11:19:40.913Z,17.14
2022-09-18T11:22:36.610Z,17.27
2022-09-18T11:25:24.342Z,17.44
2022-09-18T11:28:02.730Z,17.41
2022-09-18T11:30:39.181Z,17.43
2022-09-18T11:33:27.491Z,17.28
2022-09-18T11:36:05.381Z,17.30
2022-09-18T11:38:41.314Z,17.17
2022-09-18T11:41:12.362Z,17.04
2022-09-18T11:44:01.077Z,17.19
2022-09-18T11:47:01.151Z,17.26
2022-09-18T11:49:37.279Z,17.36
2022-09-18T11:52:16.108Z,17.46
2022-09-18T11:54:58.638Z,17.51
2022-09-18T11:57:36.771Z,17.52
2022-09-18T12:00:15.132Z,17.56
2022-09-18T12:02:59.615Z,17.49
2022-09-18T12:05:51.590Z,17.47
2022-09-18T12:08:50.924Z,17.47
2022-09-18T12:11:32.168Z,17.59
2022-09-18T12:14:13.398Z,17.62
2022-09-18T12:16:59.006Z,17.65
2022-09-18T12:19:38.203Z,17.78
2022-09-18T12:22:19.021Z,17.89
2022-09-18T12:24:48.484Z,17.89
2022-09-18T12:27:33.914Z,17.78
2022-09-18T12:30:11.197Z,17.86
2022-09-18T12:33:04.153Z,17.85
2022-09-18T12:36:03.001Z,17.74
2022-09-18T12:38:51.302Z,17.85
2022-09-18T12:41:57.795Z,17.93
2022-09-18T12:44:56.022Z,17.98
2022-09-18T12:47:46.394Z,17.82
2022-09-18T12:50:45.767Z,17.86
2022-09-18T12:53:43.016Z,17.79
2022-09-18T12:56:35.322Z,17.66
2022-09-18T12:59:50.993Z,17.74
2022-09-18T13:02:37.127Z,17.63
2022-09-18T13:05:22.222Z,17.63
2022-09-18T13:07:59.863Z,17.66
2022-09-18T13:10:35.573Z,17.63
2022-09-18T13:13:14.123Z,17.74
2022-09-18T13:15:49.817Z,17.92
2022-09-18T13:18:30.965Z,18.09
2022-09-18T13:21:03.981Z,18.30
2022-09-18T13:23:39.354Z,18.37
2022-09-18T13:26:14.161Z,18.34
2022-09-18T13:28:44.445Z,18.22
2022-09-18T13:31:29.064Z,18.18
2022-09-18T13:34:02.377Z,18.07
2022-09-18T13:36:35.565Z,18.00
2022-09-18T13:39:18.449Z,18.09
2022-09-18T13:41:51.484Z,18.18
2022-09-18T13:44:26.388Z,18.17
2022-09-18T13:47:06.485Z,18.12
2022-09-18T13:49:43.940Z,18.07
2022-09-18T13:52:45.813Z,18.06
2022-09-18T13:55:49.632Z,18.05
2022-09-18T13:58:53.950Z,17.93
2022-09-18T14:02:04.439Z,17.93
2022-09-18T14:05:05.856Z,17.98
2022-09-18T14:08:17.313Z,17.91
2022-09-18T14:11:15.804Z,17.91
2022-09-18T14:13:54.209Z,17.89
2022-09-18T14:16:38.962Z,17.80
2022-09-18T14:19:32.328Z,17.78
2022-09-18T14:22:03.195Z,17.64
2022-09-18T14:25:00.096Z,17.65
2022-09-18T14:27:48.892Z,17.58
2022-09-18T14:30:26.862Z,17.65
2022-09-18T14:33:18.211Z,17.64
2022-09-18T14:35:58.562Z,17.61
2022-09-18T14:38:49.739Z,17.52
2022-09-18T14:41:31.757Z,17.47
2022-09-18T14:44:06.419Z,17.48
2022-09-18T14:46:35.607Z,17.48
2022-09-18T14:49:04.562Z,17.49
2022-09-18T14:51:49.519Z,17.46
2022-09-18T14:54:28.645Z,17.34
2022-09-18T14:57:04.864Z,17.23
2022-09-18T14:59:39.685Z,17.14
2022-09-18T15:02:20.799Z,17.10
2022-09-18T15:04:51.803Z,17.02
2022-09-18T15:07:25.960Z,16.94
2022-09-18T15:10:20.993Z,16.90
2022-09-18T15:12:53.398Z,16.80
2022-09-18T15:15:47.450Z,16.63
2022-09-18T15:18:30.791Z,16.55
2022-09-18T15:21:06.722Z,16.45
2022-09-18T15:23:46.752Z,16.37
2022-09-18T15:26:18.746Z,16.28
2022-09-18T15:28:55.050Z,16.15
2022-09-18T15:31:35.844Z,16.09
2022-09-18T15:34:13.533Z,15.99
2022-09-18T15:36:42.735Z,15.95
2022-09-18T15:39:32.505Z,15.88
2022-09-18T15:42:29.299Z,15.79
2022-09-18T15:45:28.667Z,15.71
2022-09-18T15:48:02.133Z,15.66
2022-09-18T15:50:51.993Z,15.56
2022-09-18T15:53:30.870Z,15.51
2022-09-18T15:56:05.573Z,15.44
2022-09-18T15:58:53.905Z,15.38
2022-09-18T16:01:36.452Z,15.36
2022-09-18T16:04:20.314Z,15.39
2022-09-18T16:06:59.196Z,15.37
2022-09-18T16:09:42.866Z,15.38
2022-09-18T16:12:43.384Z,15.32
2022-09-18T16:15:24.016Z,15.27
2022-09-18T16:18:20.806Z,15.22
2022-09-18T16:21:16.236Z,15.20
2022-09-18T16:23:53.855Z,15.17
2022-09-18T16:26:31.375Z,15.13
2022-09-18T16:29:03.718Z,15.07
2022-09-18T16:31:36.756Z,15.01
2022-09-18T16:34:24.799Z,14.99
2022-09-18T16:36:56.930Z,14.96
2022-09-18T16:39:28.755Z,14.95
2022-09-18T16:42:03.839Z,14.92
2022-09-18T16:44:36.647Z,14.91
2022-09-18T16:47:09.986Z,14.86
2022-09-18T16:49:45.271Z,14.83
2022-09-18T16:52:16.800Z,14.83
2022-09-18T16:54:58.274Z,14.79
2022-09-18T16:57:27.910Z,14.74
2022-09-18T17:00:05.480Z,14.70
2022-09-18T17:02:49.299Z,14.73
2022-09-18T17:05:19.074Z,14.68
2022-09-18T17:07:49.963Z,14.65
2022-09-18T17:10:25.036Z,14.68
2022-09-18T17:12:57.398Z,14.67
2022-09-18T17:15:35.265Z,14.68
2022-09-18T17:18:06.019Z,14.63
2022-09-18T17:20:36.075Z,14.63
2022-09-18T17:23:07.358Z,14.58
2022-09-18T17:25:42.728Z,14.55
2022-09-18T17:28:12.611Z,14.54
2022-09-18T17:30:43.254Z,14.57
2022-09-18T17:33:12.546Z,14.50
2022-09-18T17:35:42.337Z,14.57
2022-09-18T17:38:13.379Z,14.49
2022-09-18T17:40:42.677Z,14.41
2022-09-18T17:43:16.804Z,14.47
2022-09-18T17:45:46.402Z,14.44
2022-09-18T17:48:16.353Z,14.39
2022-09-18T17:50:51.451Z,14.37
2022-09-18T17:53:28.849Z,14.30
2022-09-18T17:56:02.549Z,14.19
2022-09-18T17:58:39.003Z,14.14
2022-09-18T18:01:14.672Z,14.10
2022-09-18T18:03:47.330Z,14.06
2022-09-18T18:06:21.801Z,14.06
2022-09-18T18:08:56.354Z,14.01
2022-09-18T18:11:33.517Z,13.94
2022-09-18T18:14:03.626Z,13.90
2022-09-18T18:16:35.161Z,13.87
2022-09-18T18:19:08.563Z,13.80
2022-09-18T18:21:45.206Z,13.71
2022-09-18T18:24:19.114Z,13.65
2022-09-18T18:26:48.854Z,13.58
2022-09-18T18:29:21.263Z,13.48
2022-09-18T18:31:51.922Z,13.40
2022-09-18T18:34:22.701Z,13.34
2022-09-18T18:36:52.960Z,13.28
2022-09-18T18:39:23.767Z,13.21
2022-09-18T18:41:53.416Z,13.20
2022-09-18T18:44:23.430Z,13.16
2022-09-18T18:46:53.536Z,13.11
2022-09-18T18:49:22.653Z,13.12
2022-09-18T18:51:52.458Z,13.03
2022-09-18T18:54:24.408Z,13.02
2022-09-18T18:56:53.592Z,12.97
2022-09-18T18:59:25.876Z,12.95
2022-09-18T19:01:58.050Z,12.90
2022-09-18T19:04:31.149Z,12.84
2022-09-18T19:07:00.903Z,12.69
2022-09-18T19:09:32.740Z,12.64
2022-09-18T19:12:02.193Z,12.60
2022-09-18T19:14:34.414Z,12.59
2022-09-18T19:17:03.693Z,12.53
2022-09-18T19:19:33.047Z,12.46
2022-09-18T19:22:02.402Z,12.45
2022-09-18T19:24:35.072Z,12.45
2022-09-18T19:27:04.573Z,12.44
2022-09-18T19:29:35.942Z,12.42
2022-09-18T19:32:06.449Z,12.44
2022-09-18T19:34:36.328Z,12.34
2022-09-18T19:37:11.366Z,12.34
2022-09-18T19:39:47.402Z,12.36
2022-09-18T19:42:17.764Z,12.34
2022-09-18T19:44:50.205Z,12.34
2022-09-18T19:47:28.568Z,12.36
2022-09-18T19:49:59.966Z,12.32
2022-09-18T19:52:32.732Z,12.30
2022-09-18T19:55:06.745Z,12.40
2022-09-18T19:57:36.226Z,12.33
2022-09-18T20:00:09.472Z,12.30
2022-09-18T20:02:42.858Z,12.34
2022-09-18T20:05:12.488Z,12.31
2022-09-18T20:07:43.180Z,12.32
2022-09-18T20:10:17.368Z,12.29
2022-09-18T20:12:47.670Z,12.33
2022-09-18T20:15:16.910Z,12.32
2022-09-18T20:17:46.281Z,12.29
2022-09-18T20:20:16.659Z,12.32
2022-09-18T20:22:52.289Z,12.30
2022-09-18T20:25:26.466Z,12.28
2022-09-18T20:27:55.780Z,12.20
2022-09-18T20:30:26.186Z,12.18
2022-09-18T20:32:55.815Z,12.18
2022-09-18T20:35:24.994Z,12.16
2022-09-18T20:37:56.380Z,12.15
2022-09-18T20:40:27.306Z,12.19
2022-09-18T20:42:56.582Z,12.25
2022-09-18T20:45:26.686Z,12.25
2022-09-18T20:47:55.299Z,12.31
2022-09-18T20:50:30.394Z,12.29
2022-09-18T20:53:06.330Z,12.34
2022-09-18T20:55:37.382Z,12.34
2022-09-18T20:58:06.322Z,12.31
2022-09-18T21:00:36.920Z,12.34
2022-09-18T21:03:07.012Z,12.37
2022-09-18T21:05:36.486Z,12.36
2022-09-18T21:08:05.327Z,12.37
2022-09-18T21:10:34.749Z,12.36
2022-09-18T21:13:06.179Z,12.38
2022-09-18T21:15:34.985Z,12.41
2022-09-18T21:18:03.715Z,12.41
2022-09-18T21:20:32.907Z,12.42
2022-09-18T21:23:19.013Z,12.47
2022-09-18T21:25:47.582Z,12.46
2022-09-18T21:28:17.598Z,12.46
2022-09-18T21:30:46.256Z,12.50
2022-09-18T21:33:16.163Z,12.51
2022-09-18T21:35:54.971Z,12.52
2022-09-18T21:38:23.589Z,12.57
2022-09-18T21:40:52.276Z,12.57
2022-09-18T21:43:22.913Z,12.62
2022-09-18T21:45:51.660Z,12.62
2022-09-18T21:48:20.341Z,12.62
2022-09-18T21:50:49.295Z,12.60
2022-09-18T21:53:18.380Z,12.60
2022-09-18T21:55:47.833Z,12.64
2022-09-18T21:58:17.548Z,12.62
2022-09-18T22:00:48.000Z,12.62
2022-09-18T22:03:17.418Z,12.54
2022-09-18T22:05:47.060Z,12.55
2022-09-18T22:08:17.577Z,12.47
2022-09-18T22:10:46.637Z,12.36
2022-09-18T22:13:15.623Z,12.32
2022-09-18T22:15:44.550Z,12.27
2022-09-18T22:18:14.664Z,12.41
2022-09-18T22:20:43.390Z,12.43
2022-09-18T22:23:12.295Z,12.43
2022-09-18T22:25:40.998Z,12.44
2022-09-18T22:28:09.663Z,12.55
2022-09-18T22:30:38.666Z,12.56
2022-09-18T22:33:07.715Z,12.63
2022-09-18T22:35:38.150Z,12.64
2022-09-18T22:38:06.798Z,12.71
2022-09-18T22:40:35.521Z,12.74
2022-09-18T22:43:04.306Z,12.75
2022-09-18T22:45:33.013Z,12.73
2022-09-18T22:48:01.712Z,12.76
2022-09-18T22:50:30.569Z,12.76
2022-09-18T22:53:00.866Z,12.82
2022-09-18T22:55:29.869Z,12.79
2022-09-18T22:57:58.617Z,12.75
2022-09-18T23:00:27.346Z,12.77
2022-09-18T23:02:56.266Z,12.83
2022-09-18T23:05:24.881Z,12.76
2022-09-18T23:07:53.476Z,12.80
2022-09-18T23:10:23.441Z,12.84
2022-09-18T23:12:52.084Z,12.87
2022-09-18T23:15:20.704Z,12.88
2022-09-18T23:17:49.733Z,12.95
2022-09-18T23:20:18.612Z,12.95
2022-09-18T23:22:47.452Z,12.95
2022-09-18T23:25:16.361Z,12.99
2022-09-18T23:27:46.600Z,12.95
2022-09-18T23:30:15.378Z,12.91
2022-09-18T23:32:43.992Z,12.94
2022-09-18T23:35:12.652Z,12.91
2022-09-18T23:37:41.242Z,12.91
2022-09-18T23:40:11.275Z,12.89
2022-09-18T23:42:40.277Z,12.89
2022-09-18T23:45:11.939Z,12.89
2022-09-18T23:47:40.707Z,12.92
2022-09-18T23:50:10.103Z,12.91
2022-09-18T23:52:39.030Z,12.89
2022-09-18T23:55:08.000Z,12.88
2022-09-18T23:57:37.090Z,12.80
